Date,TemperatureHighF,TemperatureAvgF,TemperatureLowF,DewpointHighF,DewpointAvgF,DewpointLowF,HumidityHigh,HumidityAvg,HumidityLow,PressureMaxIn,PressureMinIn,WindSpeedMaxMPH,WindSpeedAvgMPH,GustSpeedMaxMPH,PrecipitationSumIn
2013-1-1,40,34,30,29,20,8,78,56,31,28.97,28.85,7,2,15,0.00
2013-1-2,46,29,20,16,7,-4,54,39,17,29.12,28.94,5,1,8,0.00
2013-1-3,45,28,13,17,7,-1,63,41,20,29.15,29.03,7,2,14,0.00
2013-1-4,35,31,29,12,8,5,44,35,30,29.21,29.09,10,4,14,0.00
2013-1-5,48,33,20,22,10,0,64,39,19,29.29,29.06,7,2,11,0.00
2013-1-6,42,37,32,21,14,10,55,39,26,29.12,28.94,9,2,14,0.00
2013-1-7,40,31,19,21,13,5,61,47,29,29.32,29.12,6,2,11,0.00
2013-1-8,58,30,16,23,12,5,68,48,17,29.23,29.12,7,1,12,0.00
2013-1-9,49,34,22,41,25,-100,83,68,48,29.35,29.12,7,1,12,0.00
2013-1-10,54,36,28,37,25,19,84,67,29,29.47,29.15,2,0,3,0.00
2013-1-11,64,47,34,50,38,25,92,72,37,29.15,28.85,8,0,12,0.00
2013-1-12,54,45,42,54,44,41,100,95,89,29.03,28.91,1,0,2,0.00
2013-1-26,30,27,24,13,10,4,51,45,36,29.32,29.18,3,0,6,0.00
2013-1-27,58,32,12,13,6,-3,57,33,16,29.38,29.15,4,0,6,0.00
2013-1-28,57,44,32,51,33,9,91,68,36,29.18,28.97,8,2,16,0.00
2013-1-29,76,57,44,56,41,26,97,64,18,29.00,28.76,7,2,12,0.00
2013-1-30,76,55,41,58,42,28,97,67,18,28.76,28.26,19,2,30,0.00
2013-1-31,49,32,24,35,10,-5,63,39,20,28.82,28.23,14,6,25,0.00
2013-2-1,26,18,3,16,-4,-17,63,35,21,29.26,28.76,12,4,18,0.00
2013-2-2,34,18,1,18,-1,-19,64,39,20,29.21,28.88,8,2,15,0.00
2013-2-3,36,28,21,19,11,0,66,47,31,28.97,28.76,8,3,15,0.00
2013-2-4,48,29,21,28,8,-3,78,41,16,29.00,28.79,7,2,13,0.00
2013-2-5,42,36,32,31,24,14,83,65,35,28.85,28.76,8,1,13,0.00
2013-2-6,40,32,20,28,18,10,80,55,31,29.21,28.85,4,1,7,0.00
2013-2-7,66,35,19,30,17,-100,78,54,15,29.21,28.88,2,0,4,0.00
2013-2-8,41,32,26,37,20,8,89,61,33,29.12,28.73,11,2,17,0.00
2013-2-9,47,30,18,13,6,-4,54,36,17,29.29,29.12,6,2,12,0.00
2013-2-10,68,36,16,19,10,3,59,37,15,29.23,28.91,4,1,7,0.00
2013-2-11,69,51,38,51,21,5,88,38,15,28.91,28.67,17,4,25,0.00
2013-2-12,58,42,26,14,7,-1,52,24,17,28.97,28.76,9,4,16,0.00
2013-2-13,49,34,23,28,16,5,77,50,19,28.85,28.59,7,1,11,0.00
2013-2-14,53,38,31,20,13,4,56,37,18,28.91,28.82,6,2,13,0.00
2013-2-15,44,36,32,29,20,9,78,54,25,28.97,28.82,6,2,10,0.00
2013-2-16,38,28,19,24,8,-1,70,40,22,28.97,28.82,7,2,10,0.00
2013-2-17,36,22,11,12,-2,-12,56,31,19,29.18,28.82,9,4,17,0.00
2013-2-18,55,29,7,16,2,-15,57,31,16,29.21,28.85,6,1,12,0.00
2013-2-19,48,38,26,29,16,2,73,42,19,28.91,28.64,14,4,23,0.00
2013-2-20,37,25,22,7,1,-6,43,31,22,29.15,28.91,10,4,17,0.00
2013-2-21,42,27,21,7,1,-4,44,30,18,29.21,29.12,6,3,13,0.00
2013-2-22,51,36,25,32,18,3,74,47,33,29.15,28.88,4,1,6,0.00
2013-2-23,64,42,28,36,23,10,82,54,16,28.91,28.73,8,1,12,0.00
2013-2-24,41,30,20,26,14,5,77,50,29,29.09,28.79,9,2,13,0.00
2013-2-25,56,35,18,21,9,-3,63,38,17,29.12,28.91,6,1,9,0.00
2013-2-26,51,35,23,33,21,9,74,56,30,28.94,28.50,6,2,11,0.00
2013-2-27,46,41,34,38,27,19,86,61,36,28.67,28.50,9,3,13,0.00
2013-2-28,35,34,34,28,22,15,76,60,45,28.76,28.59,8,4,13,0.00
2013-3-1,39,34,30,24,13,5,65,42,29,28.88,28.73,6,2,11,0.00
2013-3-2,40,30,27,15,10,-1,56,40,22,28.88,28.82,6,2,10,0.00
2013-3-3,35,28,24,16,9,-1,59,41,25,28.94,28.85,7,3,12,0.00
2013-3-4,48,31,22,9,2,-4,47,28,17,29.06,28.94,8,3,13,0.00
2013-3-5,63,40,24,25,12,4,68,35,16,29.00,28.56,7,2,12,0.00
2013-3-6,53,37,32,29,22,14,79,57,29,29.03,28.56,4,1,8,0.00
2013-3-7,36,35,34,26,23,20,67,61,53,29.15,29.03,6,3,8,0.00
2013-3-25,35,34,33,29,25,21,80,71,59,28.64,28.41,5,2,8,0.00
2013-3-26,53,39,33,28,19,5,78,51,18,29.03,28.64,8,3,14,0.00
2013-3-27,51,37,32,26,17,-100,74,48,19,29.12,29.03,8,-2,14,0.00